sensor_id;sensor_type;location;lat;lon;timestamp;P1;durP1;ratioP1;P2;durP2;ratioP2
13311;SDS011;34033;48.672;9.376;2022-07-29T00:00:26;3.00;;;2.80;;
13311;SDS011;34033;48.672;9.376;2022-07-29T00:02:51;4.30;;;3.27;;
13311;SDS011;34033;48.672;9.376;2022-07-29T00:05:17;3.30;;;2.83;;
13311;SDS011;34033;48.672;9.376;2022-07-29T00:07:42;3.33;;;3.03;;
13311;SDS011;34033;48.672;9.376;2022-07-29T00:10:07;3.27;;;3.07;;
13311;SDS011;34033;48.672;9.376;2022-07-29T00:12:33;3.60;;;3.27;;
13311;SDS011;34033;48.672;9.376;2022-07-29T00:14:58;2.90;;;2.70;;
13311;SDS011;34033;48.672;9.376;2022-07-29T00:17:24;3.23;;;2.93;;
13311;SDS011;34033;48.672;9.376;2022-07-29T00:19:50;4.10;;;3.17;;
13311;SDS011;34033;48.672;9.376;2022-07-29T00:22:15;3.27;;;2.97;;
13311;SDS011;34033;48.672;9.376;2022-07-29T00:24:40;3.00;;;2.80;;
13311;SDS011;34033;48.672;9.376;2022-07-29T00:27:06;2.87;;;2.67;;
13311;SDS011;34033;48.672;9.376;2022-07-29T00:29:31;3.03;;;2.83;;
13311;SDS011;34033;48.672;9.376;2022-07-29T00:31:56;3.30;;;3.10;;
13311;SDS011;34033;48.672;9.376;2022-07-29T00:34:22;4.40;;;2.80;;
13311;SDS011;34033;48.672;9.376;2022-07-29T00:37:06;3.87;;;2.70;;
13311;SDS011;34033;48.672;9.376;2022-07-29T00:39:31;5.40;;;2.70;;
13311;SDS011;34033;48.672;9.376;2022-07-29T00:41:56;3.00;;;2.57;;
13311;SDS011;34033;48.672;9.376;2022-07-29T00:44:22;2.80;;;2.53;;
13311;SDS011;34033;48.672;9.376;2022-07-29T00:46:47;2.83;;;2.63;;
13311;SDS011;34033;48.672;9.376;2022-07-29T00:49:12;3.07;;;2.87;;
13311;SDS011;34033;48.672;9.376;2022-07-29T00:51:38;3.50;;;3.30;;
13311;SDS011;34033;48.672;9.376;2022-07-29T00:54:04;3.47;;;3.10;;
13311;SDS011;34033;48.672;9.376;2022-07-29T00:56:30;2.70;;;2.50;;
13311;SDS011;34033;48.672;9.376;2022-07-29T00:58:57;3.50;;;3.20;;
13311;SDS011;34033;48.672;9.376;2022-07-29T01:01:24;3.10;;;2.60;;
13311;SDS011;34033;48.672;9.376;2022-07-29T01:03:49;2.80;;;2.60;;
13311;SDS011;34033;48.672;9.376;2022-07-29T01:06:16;2.97;;;2.77;;
13311;SDS011;34033;48.672;9.376;2022-07-29T01:08:43;2.90;;;2.70;;
13311;SDS011;34033;48.672;9.376;2022-07-29T01:11:09;3.10;;;2.83;;
13311;SDS011;34033;48.672;9.376;2022-07-29T01:13:35;2.93;;;2.70;;
13311;SDS011;34033;48.672;9.376;2022-07-29T01:16:03;3.17;;;2.93;;
13311;SDS011;34033;48.672;9.376;2022-07-29T01:18:37;3.40;;;3.10;;
13311;SDS011;34033;48.672;9.376;2022-07-29T01:23:48;5.07;;;2.70;;
13311;SDS011;34033;48.672;9.376;2022-07-29T01:31:10;3.13;;;2.60;;
13311;SDS011;34033;48.672;9.376;2022-07-29T01:33:38;2.90;;;2.70;;
13311;SDS011;34033;48.672;9.376;2022-07-29T01:36:16;2.80;;;2.60;;
13311;SDS011;34033;48.672;9.376;2022-07-29T01:38:49;2.93;;;2.73;;
13311;SDS011;34033;48.672;9.376;2022-07-29T01:41:20;4.90;;;2.80;;
13311;SDS011;34033;48.672;9.376;2022-07-29T01:44:30;3.30;;;3.10;;
13311;SDS011;34033;48.672;9.376;2022-07-29T01:46:38;2.60;;;2.50;;
13311;SDS011;34033;48.672;9.376;2022-07-29T01:49:24;2.83;;;2.63;;
13311;SDS011;34033;48.672;9.376;2022-07-29T01:51:57;3.53;;;3.20;;
13311;SDS011;34033;48.672;9.376;2022-07-29T01:54:32;3.23;;;2.93;;
13311;SDS011;34033;48.672;9.376;2022-07-29T01:57:02;3.43;;;2.80;;
13311;SDS011;34033;48.672;9.376;2022-07-29T01:59:31;3.07;;;2.80;;
13311;SDS011;34033;48.672;9.376;2022-07-29T02:01:59;3.20;;;2.90;;
13311;SDS011;34033;48.672;9.376;2022-07-29T02:04:26;3.43;;;3.10;;
13311;SDS011;34033;48.672;9.376;2022-07-29T02:06:54;3.57;;;3.03;;
13311;SDS011;34033;48.672;9.376;2022-07-29T02:09:24;3.53;;;3.33;;
13311;SDS011;34033;48.672;9.376;2022-07-29T02:11:51;3.20;;;3.00;;
13311;SDS011;34033;48.672;9.376;2022-07-29T02:14:18;3.17;;;2.93;;
13311;SDS011;34033;48.672;9.376;2022-07-29T02:16:47;6.23;;;3.10;;
13311;SDS011;34033;48.672;9.376;2022-07-29T02:19:16;3.83;;;3.50;;
13311;SDS011;34033;48.672;9.376;2022-07-29T02:21:43;3.97;;;3.57;;
13311;SDS011;34033;48.672;9.376;2022-07-29T02:24:10;3.37;;;2.90;;
13311;SDS011;34033;48.672;9.376;2022-07-29T02:26:36;2.80;;;2.60;;
13311;SDS011;34033;48.672;9.376;2022-07-29T02:29:05;3.27;;;3.00;;
13311;SDS011;34033;48.672;9.376;2022-07-29T02:31:33;3.10;;;2.90;;
13311;SDS011;34033;48.672;9.376;2022-07-29T02:34:02;3.10;;;2.90;;
13311;SDS011;34033;48.672;9.376;2022-07-29T02:36:29;3.23;;;2.97;;
13311;SDS011;34033;48.672;9.376;2022-07-29T02:38:56;3.20;;;2.90;;
13311;SDS011;34033;48.672;9.376;2022-07-29T02:41:40;2.80;;;2.70;;
13311;SDS011;34033;48.672;9.376;2022-07-29T02:44:12;3.10;;;2.90;;
13311;SDS011;34033;48.672;9.376;2022-07-29T02:46:41;4.17;;;2.87;;
13311;SDS011;34033;48.672;9.376;2022-07-29T02:51:56;3.17;;;2.93;;
13311;SDS011;34033;48.672;9.376;2022-07-29T02:57:16;2.90;;;2.70;;
13311;SDS011;34033;48.672;9.376;2022-07-29T02:59:50;3.47;;;2.70;;
13311;SDS011;34033;48.672;9.376;2022-07-29T03:02:17;2.70;;;2.50;;
13311;SDS011;34033;48.672;9.376;2022-07-29T03:04:43;5.40;;;3.03;;
13311;SDS011;34033;48.672;9.376;2022-07-29T03:07:11;3.27;;;3.00;;
13311;SDS011;34033;48.672;9.376;2022-07-29T03:09:40;3.17;;;2.87;;
13311;SDS011;34033;48.672;9.376;2022-07-29T03:12:07;3.40;;;3.20;;
13311;SDS011;34033;48.672;9.376;2022-07-29T03:14:33;5.00;;;2.77;;
13311;SDS011;34033;48.672;9.376;2022-07-29T03:17:00;4.33;;;2.93;;
13311;SDS011;34033;48.672;9.376;2022-07-29T03:19:26;5.40;;;3.20;;
13311;SDS011;34033;48.672;9.376;2022-07-29T03:21:51;4.33;;;3.40;;
13311;SDS011;34033;48.672;9.376;2022-07-29T03:24:36;3.37;;;3.07;;
13311;SDS011;34033;48.672;9.376;2022-07-29T03:27:03;4.07;;;2.93;;
13311;SDS011;34033;48.672;9.376;2022-07-29T03:29:29;6.00;;;3.90;;
13311;SDS011;34033;48.672;9.376;2022-07-29T03:31:55;4.70;;;2.97;;
13311;SDS011;34033;48.672;9.376;2022-07-29T03:34:21;3.27;;;2.97;;
13311;SDS011;34033;48.672;9.376;2022-07-29T03:36:47;3.23;;;3.03;;
13311;SDS011;34033;48.672;9.376;2022-07-29T03:39:14;4.17;;;2.70;;
13311;SDS011;34033;48.672;9.376;2022-07-29T03:41:44;3.00;;;2.73;;
13311;SDS011;34033;48.672;9.376;2022-07-29T03:44:12;3.10;;;2.80;;
13311;SDS011;34033;48.672;9.376;2022-07-29T03:46:40;3.13;;;2.93;;
13311;SDS011;34033;48.672;9.376;2022-07-29T03:49:08;2.80;;;2.60;;
13311;SDS011;34033;48.672;9.376;2022-07-29T03:51:35;2.70;;;2.60;;
13311;SDS011;34033;48.672;9.376;2022-07-29T03:54:02;3.13;;;2.83;;
13311;SDS011;34033;48.672;9.376;2022-07-29T03:56:28;3.37;;;3.07;;
13311;SDS011;34033;48.672;9.376;2022-07-29T03:58:56;3.07;;;2.87;;
13311;SDS011;34033;48.672;9.376;2022-07-29T04:01:21;3.10;;;2.90;;
13311;SDS011;34033;48.672;9.376;2022-07-29T04:03:48;3.67;;;2.60;;
13311;SDS011;34033;48.672;9.376;2022-07-29T04:06:13;3.17;;;2.97;;
13311;SDS011;34033;48.672;9.376;2022-07-29T04:08:39;3.20;;;3.00;;
13311;SDS011;34033;48.672;9.376;2022-07-29T04:11:04;3.20;;;3.00;;
13311;SDS011;34033;48.672;9.376;2022-07-29T04:13:30;2.70;;;2.50;;
13311;SDS011;34033;48.672;9.376;2022-07-29T04:15:56;2.83;;;2.63;;
13311;SDS011;34033;48.672;9.376;2022-07-29T04:18:22;4.90;;;4.07;;
13311;SDS011;34033;48.672;9.376;2022-07-29T04:20:47;4.23;;;3.80;;
13311;SDS011;34033;48.672;9.376;2022-07-29T04:23:13;4.00;;;3.70;;
13311;SDS011;34033;48.672;9.376;2022-07-29T04:25:39;4.07;;;3.67;;
13311;SDS011;34033;48.672;9.376;2022-07-29T04:28:05;3.80;;;3.43;;
13311;SDS011;34033;48.672;9.376;2022-07-29T04:30:32;3.80;;;3.50;;
13311;SDS011;34033;48.672;9.376;2022-07-29T04:32:59;3.37;;;3.10;;
13311;SDS011;34033;48.672;9.376;2022-07-29T04:35:26;4.37;;;3.97;;
13311;SDS011;34033;48.672;9.376;2022-07-29T04:37:51;3.70;;;3.47;;
13311;SDS011;34033;48.672;9.376;2022-07-29T04:40:17;3.97;;;3.67;;
13311;SDS011;34033;48.672;9.376;2022-07-29T04:42:42;3.77;;;3.47;;
13311;SDS011;34033;48.672;9.376;2022-07-29T04:45:08;4.07;;;3.77;;
13311;SDS011;34033;48.672;9.376;2022-07-29T04:47:33;4.13;;;3.67;;
13311;SDS011;34033;48.672;9.376;2022-07-29T04:49:59;4.57;;;3.70;;
13311;SDS011;34033;48.672;9.376;2022-07-29T04:52:24;4.57;;;4.13;;
13311;SDS011;34033;48.672;9.376;2022-07-29T04:54:49;4.73;;;4.30;;
13311;SDS011;34033;48.672;9.376;2022-07-29T04:57:15;3.70;;;3.40;;
13311;SDS011;34033;48.672;9.376;2022-07-29T04:59:40;5.17;;;3.90;;
13311;SDS011;34033;48.672;9.376;2022-07-29T05:02:05;4.97;;;4.10;;
13311;SDS011;34033;48.672;9.376;2022-07-29T05:04:31;5.20;;;4.07;;
13311;SDS011;34033;48.672;9.376;2022-07-29T05:06:56;3.80;;;3.43;;
13311;SDS011;34033;48.672;9.376;2022-07-29T05:09:21;4.83;;;4.30;;
13311;SDS011;34033;48.672;9.376;2022-07-29T05:11:47;4.20;;;3.87;;
13311;SDS011;34033;48.672;9.376;2022-07-29T05:14:12;4.40;;;4.00;;
13311;SDS011;34033;48.672;9.376;2022-07-29T05:16:38;4.57;;;4.17;;
13311;SDS011;34033;48.672;9.376;2022-07-29T05:19:05;4.17;;;3.87;;
13311;SDS011;34033;48.672;9.376;2022-07-29T05:21:30;4.93;;;4.50;;
13311;SDS011;34033;48.672;9.376;2022-07-29T05:23:55;4.20;;;3.90;;
13311;SDS011;34033;48.672;9.376;2022-07-29T05:26:21;5.00;;;4.60;;
13311;SDS011;34033;48.672;9.376;2022-07-29T05:28:46;4.77;;;4.37;;
13311;SDS011;34033;48.672;9.376;2022-07-29T05:31:11;5.03;;;3.90;;
13311;SDS011;34033;48.672;9.376;2022-07-29T05:33:39;5.30;;;4.50;;
13311;SDS011;34033;48.672;9.376;2022-07-29T05:36:05;4.10;;;3.80;;
13311;SDS011;34033;48.672;9.376;2022-07-29T05:38:31;4.20;;;3.80;;
13311;SDS011;34033;48.672;9.376;2022-07-29T05:40:57;6.77;;;3.77;;
13311;SDS011;34033;48.672;9.376;2022-07-29T05:43:24;3.93;;;3.63;;
13311;SDS011;34033;48.672;9.376;2022-07-29T05:45:49;4.00;;;3.60;;
13311;SDS011;34033;48.672;9.376;2022-07-29T05:48:14;3.70;;;3.40;;
13311;SDS011;34033;48.672;9.376;2022-07-29T05:50:40;3.40;;;3.10;;
13311;SDS011;34033;48.672;9.376;2022-07-29T05:53:05;4.03;;;3.73;;
13311;SDS011;34033;48.672;9.376;2022-07-29T05:55:31;4.17;;;3.87;;
13311;SDS011;34033;48.672;9.376;2022-07-29T05:57:56;3.97;;;3.67;;
13311;SDS011;34033;48.672;9.376;2022-07-29T06:00:21;5.20;;;3.50;;
13311;SDS011;34033;48.672;9.376;2022-07-29T06:02:47;3.20;;;3.00;;
13311;SDS011;34033;48.672;9.376;2022-07-29T06:05:12;3.37;;;3.13;;
13311;SDS011;34033;48.672;9.376;2022-07-29T06:07:40;3.87;;;3.57;;
13311;SDS011;34033;48.672;9.376;2022-07-29T06:10:05;3.77;;;3.47;;
13311;SDS011;34033;48.672;9.376;2022-07-29T06:12:31;3.23;;;3.03;;
13311;SDS011;34033;48.672;9.376;2022-07-29T06:14:57;3.30;;;3.10;;
13311;SDS011;34033;48.672;9.376;2022-07-29T06:17:22;5.53;;;3.60;;
13311;SDS011;34033;48.672;9.376;2022-07-29T06:19:48;3.33;;;3.13;;
13311;SDS011;34033;48.672;9.376;2022-07-29T06:22:15;7.20;;;3.43;;
13311;SDS011;34033;48.672;9.376;2022-07-29T06:24:41;2.83;;;2.63;;
13311;SDS011;34033;48.672;9.376;2022-07-29T06:27:08;4.03;;;3.13;;
13311;SDS011;34033;48.672;9.376;2022-07-29T06:29:37;3.10;;;2.90;;
13311;SDS011;34033;48.672;9.376;2022-07-29T06:32:03;3.30;;;3.10;;
13311;SDS011;34033;48.672;9.376;2022-07-29T06:34:29;4.13;;;3.10;;
13311;SDS011;34033;48.672;9.376;2022-07-29T06:36:54;3.03;;;2.83;;
13311;SDS011;34033;48.672;9.376;2022-07-29T06:39:20;3.83;;;2.90;;
13311;SDS011;34033;48.672;9.376;2022-07-29T06:41:48;3.00;;;2.80;;
13311;SDS011;34033;48.672;9.376;2022-07-29T06:44:15;3.30;;;3.00;;
13311;SDS011;34033;48.672;9.376;2022-07-29T06:46:41;3.10;;;2.80;;
13311;SDS011;34033;48.672;9.376;2022-07-29T06:49:07;5.67;;;2.97;;
13311;SDS011;34033;48.672;9.376;2022-07-29T06:51:33;3.73;;;3.30;;
13311;SDS011;34033;48.672;9.376;2022-07-29T06:53:58;3.57;;;3.07;;
13311;SDS011;34033;48.672;9.376;2022-07-29T06:56:25;3.47;;;2.63;;
13311;SDS011;34033;48.672;9.376;2022-07-29T06:58:51;5.13;;;3.20;;
13311;SDS011;34033;48.672;9.376;2022-07-29T07:01:16;4.10;;;3.80;;
13311;SDS011;34033;48.672;9.376;2022-07-29T07:03:41;4.10;;;3.70;;
13311;SDS011;34033;48.672;9.376;2022-07-29T07:06:07;4.07;;;3.67;;
13311;SDS011;34033;48.672;9.376;2022-07-29T07:08:33;3.13;;;2.80;;
13311;SDS011;34033;48.672;9.376;2022-07-29T07:10:58;3.10;;;2.80;;
13311;SDS011;34033;48.672;9.376;2022-07-29T07:13:24;2.83;;;2.63;;
13311;SDS011;34033;48.672;9.376;2022-07-29T07:15:49;2.33;;;2.23;;
13311;SDS011;34033;48.672;9.376;2022-07-29T07:18:16;2.93;;;2.70;;
13311;SDS011;34033;48.672;9.376;2022-07-29T07:20:42;2.60;;;2.40;;
13311;SDS011;34033;48.672;9.376;2022-07-29T07:23:08;3.40;;;2.67;;
13311;SDS011;34033;48.672;9.376;2022-07-29T07:25:33;2.90;;;2.70;;
13311;SDS011;34033;48.672;9.376;2022-07-29T07:27:59;3.37;;;3.07;;
13311;SDS011;34033;48.672;9.376;2022-07-29T07:30:24;3.50;;;3.20;;
13311;SDS011;34033;48.672;9.376;2022-07-29T07:32:50;2.40;;;2.30;;
13311;SDS011;34033;48.672;9.376;2022-07-29T07:35:16;3.27;;;2.97;;
13311;SDS011;34033;48.672;9.376;2022-07-29T07:37:41;2.30;;;2.20;;
13311;SDS011;34033;48.672;9.376;2022-07-29T07:40:07;7.63;;;2.80;;
13311;SDS011;34033;48.672;9.376;2022-07-29T07:42:34;2.90;;;2.70;;
13311;SDS011;34033;48.672;9.376;2022-07-29T07:44:59;3.07;;;2.87;;
13311;SDS011;34033;48.672;9.376;2022-07-29T07:47:25;2.43;;;2.23;;
13311;SDS011;34033;48.672;9.376;2022-07-29T07:49:51;3.10;;;2.90;;
13311;SDS011;34033;48.672;9.376;2022-07-29T07:52:17;2.67;;;2.50;;
13311;SDS011;34033;48.672;9.376;2022-07-29T07:54:44;3.30;;;2.50;;
13311;SDS011;34033;48.672;9.376;2022-07-29T07:57:10;3.50;;;3.27;;
13311;SDS011;34033;48.672;9.376;2022-07-29T07:59:36;3.10;;;2.90;;
13311;SDS011;34033;48.672;9.376;2022-07-29T08:02:01;2.60;;;2.50;;
13311;SDS011;34033;48.672;9.376;2022-07-29T08:04:27;2.60;;;2.33;;
13311;SDS011;34033;48.672;9.376;2022-07-29T08:06:52;3.20;;;2.90;;
13311;SDS011;34033;48.672;9.376;2022-07-29T08:09:19;2.80;;;2.50;;
13311;SDS011;34033;48.672;9.376;2022-07-29T08:11:45;2.73;;;2.53;;
13311;SDS011;34033;48.672;9.376;2022-07-29T08:14:11;3.40;;;3.10;;
13311;SDS011;34033;48.672;9.376;2022-07-29T08:16:36;2.87;;;2.67;;
13311;SDS011;34033;48.672;9.376;2022-07-29T08:19:01;2.50;;;2.40;;
13311;SDS011;34033;48.672;9.376;2022-07-29T08:21:27;4.80;;;2.90;;
13311;SDS011;34033;48.672;9.376;2022-07-29T08:23:52;2.40;;;2.30;;
13311;SDS011;34033;48.672;9.376;2022-07-29T08:26:20;2.10;;;2.00;;
13311;SDS011;34033;48.672;9.376;2022-07-29T08:28:47;2.40;;;2.20;;
13311;SDS011;34033;48.672;9.376;2022-07-29T08:31:15;5.07;;;2.47;;
13311;SDS011;34033;48.672;9.376;2022-07-29T08:33:41;2.87;;;2.23;;
13311;SDS011;34033;48.672;9.376;2022-07-29T08:36:07;2.47;;;2.27;;
13311;SDS011;34033;48.672;9.376;2022-07-29T08:38:33;2.27;;;2.07;;
13311;SDS011;34033;48.672;9.376;2022-07-29T08:40:59;3.50;;;2.17;;
13311;SDS011;34033;48.672;9.376;2022-07-29T08:43:26;2.70;;;2.50;;
13311;SDS011;34033;48.672;9.376;2022-07-29T08:45:53;2.20;;;2.10;;
13311;SDS011;34033;48.672;9.376;2022-07-29T08:48:19;2.60;;;2.40;;
13311;SDS011;34033;48.672;9.376;2022-07-29T08:50:47;2.50;;;2.40;;
13311;SDS011;34033;48.672;9.376;2022-07-29T08:53:14;4.77;;;2.50;;
13311;SDS011;34033;48.672;9.376;2022-07-29T08:55:42;2.23;;;2.10;;
13311;SDS011;34033;48.672;9.376;2022-07-29T08:58:09;3.17;;;2.53;;
13311;SDS011;34033;48.672;9.376;2022-07-29T09:00:36;2.80;;;2.60;;
13311;SDS011;34033;48.672;9.376;2022-07-29T09:03:06;2.53;;;2.33;;
13311;SDS011;34033;48.672;9.376;2022-07-29T09:05:33;2.90;;;2.70;;
13311;SDS011;34033;48.672;9.376;2022-07-29T09:07:59;3.23;;;2.93;;
13311;SDS011;34033;48.672;9.376;2022-07-29T09:10:26;2.97;;;2.57;;
13311;SDS011;34033;48.672;9.376;2022-07-29T09:12:51;3.67;;;2.60;;
13311;SDS011;34033;48.672;9.376;2022-07-29T09:15:17;2.37;;;2.27;;
13311;SDS011;34033;48.672;9.376;2022-07-29T09:17:44;2.80;;;2.60;;
13311;SDS011;34033;48.672;9.376;2022-07-29T09:20:11;2.43;;;2.33;;
13311;SDS011;34033;48.672;9.376;2022-07-29T09:22:41;2.37;;;2.27;;
13311;SDS011;34033;48.672;9.376;2022-07-29T09:25:07;3.67;;;2.50;;
13311;SDS011;34033;48.672;9.376;2022-07-29T09:27:33;3.00;;;2.80;;
13311;SDS011;34033;48.672;9.376;2022-07-29T09:30:00;2.60;;;2.40;;
13311;SDS011;34033;48.672;9.376;2022-07-29T09:32:28;2.50;;;2.30;;
13311;SDS011;34033;48.672;9.376;2022-07-29T09:37:49;4.40;;;2.43;;
13311;SDS011;34033;48.672;9.376;2022-07-29T09:40:32;2.97;;;2.77;;
13311;SDS011;34033;48.672;9.376;2022-07-29T09:42:58;2.83;;;2.60;;
13311;SDS011;34033;48.672;9.376;2022-07-29T09:45:38;3.53;;;2.43;;
13311;SDS011;34033;48.672;9.376;2022-07-29T09:48:18;2.53;;;2.33;;
13311;SDS011;34033;48.672;9.376;2022-07-29T09:50:48;2.90;;;2.70;;
13311;SDS011;34033;48.672;9.376;2022-07-29T09:53:29;2.30;;;2.20;;
13311;SDS011;34033;48.672;9.376;2022-07-29T09:55:54;2.40;;;2.30;;
13311;SDS011;34033;48.672;9.376;2022-07-29T09:58:20;4.10;;;2.60;;
13311;SDS011;34033;48.672;9.376;2022-07-29T10:00:48;2.30;;;2.20;;
13311;SDS011;34033;48.672;9.376;2022-07-29T10:03:15;2.73;;;2.53;;
13311;SDS011;34033;48.672;9.376;2022-07-29T10:05:41;3.00;;;2.77;;
13311;SDS011;34033;48.672;9.376;2022-07-29T10:08:08;3.83;;;2.70;;
13311;SDS011;34033;48.672;9.376;2022-07-29T10:10:36;4.93;;;2.57;;
13311;SDS011;34033;48.672;9.376;2022-07-29T10:13:08;3.07;;;2.77;;
13311;SDS011;34033;48.672;9.376;2022-07-29T10:15:43;3.03;;;2.73;;
13311;SDS011;34033;48.672;9.376;2022-07-29T10:18:11;3.00;;;2.77;;
13311;SDS011;34033;48.672;9.376;2022-07-29T10:20:37;3.23;;;2.40;;
13311;SDS011;34033;48.672;9.376;2022-07-29T10:23:03;2.97;;;2.70;;
13311;SDS011;34033;48.672;9.376;2022-07-29T10:25:29;2.50;;;2.30;;
13311;SDS011;34033;48.672;9.376;2022-07-29T10:27:55;4.23;;;2.70;;
13311;SDS011;34033;48.672;9.376;2022-07-29T10:30:22;2.80;;;2.60;;
13311;SDS011;34033;48.672;9.376;2022-07-29T10:33:04;2.80;;;2.60;;
13311;SDS011;34033;48.672;9.376;2022-07-29T10:38:52;3.20;;;2.90;;
13311;SDS011;34033;48.672;9.376;2022-07-29T10:44:17;2.50;;;2.40;;
13311;SDS011;34033;48.672;9.376;2022-07-29T10:46:45;2.83;;;2.60;;
13311;SDS011;34033;48.672;9.376;2022-07-29T10:49:15;2.87;;;2.67;;
13311;SDS011;34033;48.672;9.376;2022-07-29T10:54:15;3.00;;;2.80;;
13311;SDS011;34033;48.672;9.376;2022-07-29T11:05:20;2.73;;;2.53;;
13311;SDS011;34033;48.672;9.376;2022-07-29T11:10:33;2.75;;;2.50;;
13311;SDS011;34033;48.672;9.376;2022-07-29T11:12:58;2.77;;;2.50;;
13311;SDS011;34033;48.672;9.376;2022-07-29T11:15:24;2.90;;;2.70;;
13311;SDS011;34033;48.672;9.376;2022-07-29T11:25:44;3.03;;;2.60;;
13311;SDS011;34033;48.672;9.376;2022-07-29T11:28:15;2.80;;;2.57;;
13311;SDS011;34033;48.672;9.376;2022-07-29T11:30:52;3.07;;;2.77;;
13311;SDS011;34033;48.672;9.376;2022-07-29T11:33:28;4.33;;;2.67;;
13311;SDS011;34033;48.672;9.376;2022-07-29T11:38:33;3.40;;;1.80;;
13311;SDS011;34033;48.672;9.376;2022-07-29T11:43:46;3.90;;;1.80;;
13311;SDS011;34033;48.672;9.376;2022-07-29T11:46:12;3.33;;;1.77;;
13311;SDS011;34033;48.672;9.376;2022-07-29T11:48:41;2.30;;;2.10;;
13311;SDS011;34033;48.672;9.376;2022-07-29T11:51:11;2.20;;;2.10;;
13311;SDS011;34033;48.672;9.376;2022-07-29T11:53:37;2.13;;;1.93;;
13311;SDS011;34033;48.672;9.376;2022-07-29T11:56:04;1.90;;;1.57;;
13311;SDS011;34033;48.672;9.376;2022-07-29T11:58:34;2.67;;;2.10;;
13311;SDS011;34033;48.672;9.376;2022-07-29T12:01:00;3.17;;;1.90;;
13311;SDS011;34033;48.672;9.376;2022-07-29T12:03:26;2.33;;;1.83;;
13311;SDS011;34033;48.672;9.376;2022-07-29T12:05:53;3.67;;;1.80;;
13311;SDS011;34033;48.672;9.376;2022-07-29T12:08:19;1.70;;;1.53;;
13311;SDS011;34033;48.672;9.376;2022-07-29T12:10:47;1.80;;;1.70;;
13311;SDS011;34033;48.672;9.376;2022-07-29T12:13:15;2.83;;;1.60;;
13311;SDS011;34033;48.672;9.376;2022-07-29T12:15:42;2.73;;;1.50;;
13311;SDS011;34033;48.672;9.376;2022-07-29T12:18:18;1.73;;;1.60;;
13311;SDS011;34033;48.672;9.376;2022-07-29T12:20:45;1.33;;;1.33;;
13311;SDS011;34033;48.672;9.376;2022-07-29T12:23:12;1.70;;;1.60;;
13311;SDS011;34033;48.672;9.376;2022-07-29T12:25:40;4.60;;;1.40;;
13311;SDS011;34033;48.672;9.376;2022-07-29T12:28:10;1.47;;;1.47;;
13311;SDS011;34033;48.672;9.376;2022-07-29T12:30:41;1.40;;;1.30;;
13311;SDS011;34033;48.672;9.376;2022-07-29T12:33:13;1.40;;;1.40;;
13311;SDS011;34033;48.672;9.376;2022-07-29T12:35:48;1.80;;;1.70;;
13311;SDS011;34033;48.672;9.376;2022-07-29T12:38:19;1.40;;;1.40;;
13311;SDS011;34033;48.672;9.376;2022-07-29T12:40:46;1.70;;;1.40;;
13311;SDS011;34033;48.672;9.376;2022-07-29T12:43:13;1.20;;;1.20;;
13311;SDS011;34033;48.672;9.376;2022-07-29T12:45:42;1.67;;;1.50;;
13311;SDS011;34033;48.672;9.376;2022-07-29T12:48:09;1.10;;;1.10;;
13311;SDS011;34033;48.672;9.376;2022-07-29T12:50:36;3.23;;;1.50;;
13311;SDS011;34033;48.672;9.376;2022-07-29T12:53:16;1.10;;;1.10;;
13311;SDS011;34033;48.672;9.376;2022-07-29T12:55:45;1.50;;;1.40;;
13311;SDS011;34033;48.672;9.376;2022-07-29T12:58:26;1.50;;;1.40;;
13311;SDS011;34033;48.672;9.376;2022-07-29T13:03:54;3.27;;;1.60;;
13311;SDS011;34033;48.672;9.376;2022-07-29T13:06:42;1.83;;;1.50;;
13311;SDS011;34033;48.672;9.376;2022-07-29T13:11:35;1.83;;;1.60;;
13311;SDS011;34033;48.672;9.376;2022-07-29T13:14:01;1.90;;;1.80;;
13311;SDS011;34033;48.672;9.376;2022-07-29T13:16:26;1.67;;;1.57;;
13311;SDS011;34033;48.672;9.376;2022-07-29T13:19:05;3.03;;;2.10;;
13311;SDS011;34033;48.672;9.376;2022-07-29T13:21:35;2.13;;;1.60;;
13311;SDS011;34033;48.672;9.376;2022-07-29T13:24:01;1.90;;;1.80;;
13311;SDS011;34033;48.672;9.376;2022-07-29T13:26:27;4.57;;;2.00;;
13311;SDS011;34033;48.672;9.376;2022-07-29T13:28:53;1.93;;;1.83;;
13311;SDS011;34033;48.672;9.376;2022-07-29T13:31:19;1.77;;;1.67;;
13311;SDS011;34033;48.672;9.376;2022-07-29T13:33:45;1.73;;;1.63;;
13311;SDS011;34033;48.672;9.376;2022-07-29T13:36:10;2.30;;;2.20;;
13311;SDS011;34033;48.672;9.376;2022-07-29T13:38:36;2.13;;;1.90;;
13311;SDS011;34033;48.672;9.376;2022-07-29T13:41:01;3.17;;;2.07;;
13311;SDS011;34033;48.672;9.376;2022-07-29T13:43:26;1.90;;;1.80;;
13311;SDS011;34033;48.672;9.376;2022-07-29T13:45:52;2.90;;;2.50;;
13311;SDS011;34033;48.672;9.376;2022-07-29T13:48:17;3.43;;;1.93;;
13311;SDS011;34033;48.672;9.376;2022-07-29T13:50:43;2.30;;;2.10;;
13311;SDS011;34033;48.672;9.376;2022-07-29T13:53:09;2.10;;;2.00;;
13311;SDS011;34033;48.672;9.376;2022-07-29T13:55:34;2.27;;;2.07;;
13311;SDS011;34033;48.672;9.376;2022-07-29T13:57:59;2.47;;;2.27;;
13311;SDS011;34033;48.672;9.376;2022-07-29T14:00:25;1.97;;;1.67;;
13311;SDS011;34033;48.672;9.376;2022-07-29T14:02:51;2.23;;;2.03;;
13311;SDS011;34033;48.672;9.376;2022-07-29T14:05:17;2.37;;;2.13;;
13311;SDS011;34033;48.672;9.376;2022-07-29T14:07:42;2.10;;;2.00;;
13311;SDS011;34033;48.672;9.376;2022-07-29T14:10:08;4.63;;;2.77;;
13311;SDS011;34033;48.672;9.376;2022-07-29T14:12:33;2.53;;;2.20;;
13311;SDS011;34033;48.672;9.376;2022-07-29T14:14:59;2.10;;;1.90;;
13311;SDS011;34033;48.672;9.376;2022-07-29T14:17:24;2.30;;;2.10;;
13311;SDS011;34033;48.672;9.376;2022-07-29T14:19:50;3.30;;;2.07;;
13311;SDS011;34033;48.672;9.376;2022-07-29T14:22:15;2.27;;;1.97;;
13311;SDS011;34033;48.672;9.376;2022-07-29T14:24:43;3.37;;;2.27;;
13311;SDS011;34033;48.672;9.376;2022-07-29T14:27:08;3.57;;;2.20;;
13311;SDS011;34033;48.672;9.376;2022-07-29T14:29:34;4.40;;;2.10;;
13311;SDS011;34033;48.672;9.376;2022-07-29T14:31:59;2.43;;;2.23;;
13311;SDS011;34033;48.672;9.376;2022-07-29T14:34:25;2.30;;;2.10;;
13311;SDS011;34033;48.672;9.376;2022-07-29T14:36:50;2.27;;;2.17;;
13311;SDS011;34033;48.672;9.376;2022-07-29T14:39:16;2.70;;;2.50;;
13311;SDS011;34033;48.672;9.376;2022-07-29T14:41:41;5.27;;;3.00;;
13311;SDS011;34033;48.672;9.376;2022-07-29T14:44:07;4.40;;;2.80;;
13311;SDS011;34033;48.672;9.376;2022-07-29T14:46:33;4.30;;;2.97;;
13311;SDS011;34033;48.672;9.376;2022-07-29T14:48:58;3.30;;;2.50;;
13311;SDS011;34033;48.672;9.376;2022-07-29T14:51:24;4.03;;;2.73;;
13311;SDS011;34033;48.672;9.376;2022-07-29T14:53:49;2.90;;;2.57;;
13311;SDS011;34033;48.672;9.376;2022-07-29T14:56:15;5.80;;;3.03;;
13311;SDS011;34033;48.672;9.376;2022-07-29T14:58:40;2.17;;;2.07;;
13311;SDS011;34033;48.672;9.376;2022-07-29T15:01:06;3.33;;;2.30;;
13311;SDS011;34033;48.672;9.376;2022-07-29T15:03:31;2.00;;;1.90;;
13311;SDS011;34033;48.672;9.376;2022-07-29T15:05:57;2.23;;;2.03;;
13311;SDS011;34033;48.672;9.376;2022-07-29T15:08:22;2.50;;;2.30;;
13311;SDS011;34033;48.672;9.376;2022-07-29T15:10:48;2.77;;;2.37;;
13311;SDS011;34033;48.672;9.376;2022-07-29T15:13:13;2.67;;;2.20;;
13311;SDS011;34033;48.672;9.376;2022-07-29T15:15:39;2.07;;;1.97;;
13311;SDS011;34033;48.672;9.376;2022-07-29T15:18:06;2.20;;;2.00;;
13311;SDS011;34033;48.672;9.376;2022-07-29T15:20:31;3.17;;;2.20;;
13311;SDS011;34033;48.672;9.376;2022-07-29T15:22:57;2.50;;;2.30;;
13311;SDS011;34033;48.672;9.376;2022-07-29T15:25:23;2.30;;;2.20;;
13311;SDS011;34033;48.672;9.376;2022-07-29T15:27:49;2.70;;;2.50;;
13311;SDS011;34033;48.672;9.376;2022-07-29T15:30:14;2.80;;;2.53;;
13311;SDS011;34033;48.672;9.376;2022-07-29T15:32:42;2.23;;;2.03;;
13311;SDS011;34033;48.672;9.376;2022-07-29T15:35:10;2.37;;;2.27;;
13311;SDS011;34033;48.672;9.376;2022-07-29T15:37:39;2.73;;;2.40;;
13311;SDS011;34033;48.672;9.376;2022-07-29T15:40:05;2.43;;;2.20;;
13311;SDS011;34033;48.672;9.376;2022-07-29T15:42:31;2.23;;;2.13;;